createdAt,value
2023-02-27T00:00:59.924Z,1.65
2023-02-27T00:03:27.959Z,1.68
2023-02-27T00:05:56.419Z,1.83
2023-02-27T00:08:24.245Z,1.80
2023-02-27T00:10:51.956Z,1.75
2023-02-27T00:13:19.456Z,1.91
2023-02-27T00:15:48.061Z,1.76
2023-02-27T00:18:15.571Z,1.79
2023-02-27T00:20:42.936Z,1.63
2023-02-27T00:23:13.144Z,1.56
2023-02-27T00:25:40.680Z,1.72
2023-02-27T00:28:07.965Z,1.85
2023-02-27T00:30:35.529Z,1.57
2023-02-27T00:33:03.738Z,1.55
2023-02-27T00:35:31.217Z,1.39
2023-02-27T00:37:58.940Z,1.57
2023-02-27T00:40:26.411Z,1.67
2023-02-27T00:42:54.168Z,1.41
2023-02-27T00:45:21.801Z,1.46
2023-02-27T00:47:49.336Z,1.32
2023-02-27T00:50:16.757Z,1.46
2023-02-27T00:52:44.660Z,1.39
2023-02-27T00:55:12.511Z,1.36
2023-02-27T00:57:40.449Z,1.37
2023-02-27T01:00:09.089Z,1.39
2023-02-27T01:02:36.783Z,1.38
2023-02-27T01:05:04.684Z,1.22
2023-02-27T01:07:32.309Z,1.31
2023-02-27T01:10:03.155Z,1.23
2023-02-27T01:12:30.560Z,1.47
2023-02-27T01:14:57.983Z,1.43
2023-02-27T01:17:25.270Z,1.38
2023-02-27T01:19:52.637Z,1.34
2023-02-27T01:22:20.138Z,1.11
2023-02-27T01:24:47.699Z,1.05
2023-02-27T01:27:15.205Z,1.15
2023-02-27T01:29:42.641Z,1.20
2023-02-27T01:32:10.393Z,1.00
2023-02-27T01:34:38.529Z,1.02
2023-02-27T01:37:06.051Z,1.12
2023-02-27T01:39:33.440Z,0.94
2023-02-27T01:42:01.119Z,1.19
2023-02-27T01:44:30.818Z,1.11
2023-02-27T01:46:58.446Z,0.96
2023-02-27T01:49:31.243Z,1.01
2023-02-27T01:52:03.204Z,0.93
2023-02-27T01:54:32.715Z,0.95
2023-02-27T01:57:06.855Z,0.98
2023-02-27T01:59:35.146Z,0.77
2023-02-27T02:02:09.714Z,0.79
2023-02-27T02:04:38.519Z,0.84
2023-02-27T02:07:13.422Z,0.81
2023-02-27T02:09:44.637Z,1.04
2023-02-27T02:12:15.161Z,1.34
2023-02-27T02:14:44.141Z,0.90
2023-02-27T02:17:48.045Z,0.82
2023-02-27T02:20:27.582Z,1.02
2023-02-27T02:23:19.598Z,1.01
2023-02-27T02:26:22.847Z,0.97
2023-02-27T02:29:12.775Z,0.84
2023-02-27T02:32:04.711Z,0.96
2023-02-27T02:35:01.544Z,0.96
2023-02-27T02:37:43.817Z,0.90
2023-02-27T02:40:22.504Z,0.87
2023-02-27T02:43:06.755Z,0.98
2023-02-27T02:45:54.982Z,1.04
2023-02-27T02:48:41.075Z,1.37
2023-02-27T02:51:22.700Z,1.30
2023-02-27T02:54:02.416Z,0.91
2023-02-27T02:56:36.855Z,0.91
2023-02-27T02:59:09.728Z,0.97
2023-02-27T03:01:41.210Z,0.92
2023-02-27T03:04:14.156Z,0.97
2023-02-27T03:06:46.287Z,0.99
2023-02-27T03:09:23.334Z,0.92
2023-02-27T03:11:52.283Z,1.01
2023-02-27T03:14:29.455Z,1.33
2023-02-27T03:16:59.644Z,0.88
2023-02-27T03:19:35.191Z,0.90
2023-02-27T03:22:31.342Z,0.97
2023-02-27T03:25:01.169Z,1.19
2023-02-27T03:27:36.143Z,1.18
2023-02-27T03:30:34.262Z,0.91
2023-02-27T03:33:07.957Z,1.16
2023-02-27T03:36:07.421Z,1.28
2023-02-27T03:38:45.385Z,0.93
2023-02-27T03:41:28.044Z,1.17
2023-02-27T03:44:19.878Z,0.94
2023-02-27T03:46:47.262Z,0.92
2023-02-27T03:49:14.854Z,0.92
2023-02-27T03:51:42.709Z,0.78
2023-02-27T03:54:14.578Z,0.95
2023-02-27T03:56:51.584Z,1.06
2023-02-27T03:59:19.002Z,0.82
2023-02-27T04:01:51.744Z,0.78
2023-02-27T04:04:19.688Z,0.78
2023-02-27T04:07:22.726Z,0.90
2023-02-27T04:10:17.161Z,1.03
2023-02-27T04:13:09.353Z,0.92
2023-02-27T04:15:48.871Z,0.94
2023-02-27T04:18:37.725Z,1.04
2023-02-27T04:21:29.362Z,0.86
2023-02-27T04:24:11.480Z,0.92
2023-02-27T04:27:03.233Z,0.89
2023-02-27T04:29:36.460Z,0.98
2023-02-27T04:32:36.096Z,0.83
2023-02-27T04:35:20.823Z,1.01
2023-02-27T04:38:06.092Z,0.84
2023-02-27T04:40:37.380Z,0.97
2023-02-27T04:43:07.204Z,1.02
2023-02-27T04:45:35.730Z,0.84
2023-02-27T04:48:07.632Z,0.90
2023-02-27T04:50:39.099Z,0.80
2023-02-27T04:53:18.853Z,0.75
2023-02-27T04:55:50.054Z,0.83
2023-02-27T04:58:25.773Z,0.81
2023-02-27T05:01:00.824Z,0.89
2023-02-27T05:03:33.784Z,0.84
2023-02-27T05:06:02.698Z,0.77
2023-02-27T05:08:55.480Z,0.71
2023-02-27T05:11:46.272Z,0.61
2023-02-27T05:14:25.381Z,0.68
2023-02-27T05:17:05.525Z,0.68
2023-02-27T05:19:33.095Z,0.58
2023-02-27T05:22:16.125Z,0.55
2023-02-27T05:24:43.472Z,0.63
2023-02-27T05:27:20.549Z,0.58
2023-02-27T05:29:52.188Z,0.53
2023-02-27T05:32:23.285Z,0.70
2023-02-27T05:34:55.166Z,0.62
2023-02-27T05:37:32.299Z,0.58
2023-02-27T05:40:01.766Z,0.62
2023-02-27T05:42:33.504Z,0.62
2023-02-27T05:45:07.428Z,0.55
2023-02-27T05:47:37.438Z,0.33
2023-02-27T05:50:15.768Z,0.35
2023-02-27T05:52:44.122Z,0.52
2023-02-27T05:55:19.195Z,0.79
2023-02-27T05:57:55.576Z,0.52
2023-02-27T06:00:39.264Z,0.36
2023-02-27T06:03:06.761Z,0.40
2023-02-27T06:05:34.227Z,0.45
2023-02-27T06:08:01.812Z,0.44
2023-02-27T06:10:29.382Z,0.30
2023-02-27T06:12:56.673Z,0.37
2023-02-27T06:15:23.954Z,0.33
2023-02-27T06:17:51.296Z,0.30
2023-02-27T06:20:18.977Z,0.43
2023-02-27T06:22:46.333Z,0.39
2023-02-27T06:25:13.774Z,0.53
2023-02-27T06:27:41.309Z,0.60
2023-02-27T06:30:10.866Z,0.77
2023-02-27T06:32:38.249Z,0.58
2023-02-27T06:35:06.597Z,0.55
2023-02-27T06:37:34.106Z,0.56
2023-02-27T06:40:01.632Z,0.45
2023-02-27T06:42:29.200Z,0.38
2023-02-27T06:44:56.459Z,0.39
2023-02-27T06:47:24.152Z,0.24
2023-02-27T06:49:51.553Z,0.31
2023-02-27T06:52:19.039Z,0.23
2023-02-27T06:54:46.424Z,0.34
2023-02-27T06:57:13.736Z,0.46
2023-02-27T06:59:42.033Z,0.57
2023-02-27T07:02:14.200Z,0.42
2023-02-27T07:04:42.123Z,0.29
2023-02-27T07:07:36.017Z,0.39
2023-02-27T07:09:57.049Z,0.52
2023-02-27T07:12:24.444Z,0.51
2023-02-27T07:14:51.750Z,0.49
2023-02-27T07:17:19.343Z,0.41
2023-02-27T07:19:46.782Z,0.39
2023-02-27T07:22:14.382Z,0.31
2023-02-27T07:24:42.236Z,0.54
2023-02-27T07:27:09.716Z,0.41
2023-02-27T07:29:37.140Z,0.48
2023-02-27T07:32:04.624Z,0.40
2023-02-27T07:34:32.023Z,0.46
2023-02-27T07:36:59.482Z,0.64
2023-02-27T07:39:26.823Z,0.54
2023-02-27T07:41:54.234Z,0.60
2023-02-27T07:44:22.787Z,0.38
2023-02-27T07:46:50.285Z,0.53
2023-02-27T07:49:17.820Z,0.75
2023-02-27T07:51:45.314Z,0.79
2023-02-27T07:54:12.809Z,0.76
2023-02-27T07:56:40.106Z,1.06
2023-02-27T07:59:07.737Z,1.24
2023-02-27T08:01:35.192Z,1.52
2023-02-27T08:04:02.887Z,1.13
2023-02-27T08:06:30.358Z,0.80
2023-02-27T08:08:59.762Z,0.79
2023-02-27T08:11:27.369Z,0.82
2023-02-27T08:14:00.596Z,0.90
2023-02-27T08:16:29.421Z,0.89
2023-02-27T08:18:57.457Z,1.08
2023-02-27T08:21:25.058Z,1.32
2023-02-27T08:23:52.859Z,0.96
2023-02-27T08:26:21.541Z,1.03
2023-02-27T08:28:49.035Z,1.02
2023-02-27T08:31:16.535Z,1.02
2023-02-27T08:33:44.137Z,1.09
2023-02-27T08:36:11.660Z,1.22
2023-02-27T08:38:39.097Z,1.51
2023-02-27T08:41:06.486Z,1.99
2023-02-27T08:43:33.974Z,2.04
2023-02-27T08:46:01.298Z,1.52
2023-02-27T08:48:28.906Z,1.53
2023-02-27T08:50:57.911Z,1.68
2023-02-27T08:53:25.551Z,1.83
2023-02-27T08:55:53.358Z,1.72
2023-02-27T08:58:20.939Z,1.90
2023-02-27T09:00:48.577Z,1.85
2023-02-27T09:03:16.501Z,1.77
2023-02-27T09:05:43.737Z,1.80
2023-02-27T09:08:11.829Z,1.77
2023-02-27T09:10:39.274Z,1.81
2023-02-27T09:13:06.681Z,1.95
2023-02-27T09:15:38.029Z,1.98
2023-02-27T09:18:07.032Z,2.04
2023-02-27T09:20:40.262Z,2.06
2023-02-27T09:23:08.022Z,2.08
2023-02-27T09:25:35.378Z,2.14
2023-02-27T09:28:03.168Z,2.08
2023-02-27T09:30:30.675Z,2.11
2023-02-27T09:32:57.967Z,2.07
2023-02-27T09:35:25.807Z,2.16
2023-02-27T09:37:53.326Z,2.19
2023-02-27T09:40:24.739Z,2.08
2023-02-27T09:42:58.231Z,2.09
2023-02-27T09:45:28.070Z,2.13
2023-02-27T09:48:01.888Z,2.22
2023-02-27T09:50:47.410Z,2.39
2023-02-27T09:53:19.356Z,2.54
2023-02-27T09:55:46.789Z,2.55
2023-02-27T09:58:38.016Z,2.60
2023-02-27T10:01:11.550Z,2.54
2023-02-27T10:03:57.410Z,2.70
2023-02-27T10:06:37.177Z,2.54
2023-02-27T10:09:10.566Z,2.57
2023-02-27T10:11:56.584Z,2.67
2023-02-27T10:14:43.929Z,2.51
2023-02-27T10:17:25.756Z,2.64
2023-02-27T10:19:53.798Z,2.67
2023-02-27T10:22:28.371Z,2.71
2023-02-27T10:25:03.967Z,2.73
2023-02-27T10:27:32.458Z,2.85
2023-02-27T10:30:28.821Z,2.97
2023-02-27T10:33:06.246Z,3.12
2023-02-27T10:35:42.343Z,3.29
2023-02-27T10:38:19.674Z,3.07
2023-02-27T10:40:48.348Z,3.19
2023-02-27T10:43:19.205Z,3.17
2023-02-27T10:45:46.669Z,3.25
2023-02-27T10:48:14.856Z,3.29
2023-02-27T10:50:44.774Z,3.29
2023-02-27T10:53:25.271Z,3.22
2023-02-27T10:56:04.526Z,3.41
2023-02-27T10:58:34.982Z,3.62
2023-02-27T11:01:08.238Z,3.46
2023-02-27T11:03:39.916Z,3.44
2023-02-27T11:06:22.393Z,3.72
2023-02-27T11:09:27.859Z,3.58
2023-02-27T11:11:56.844Z,3.69
2023-02-27T11:14:31.632Z,3.78
2023-02-27T11:17:01.468Z,3.79
2023-02-27T11:19:39.301Z,3.85
2023-02-27T11:22:23.735Z,3.91
2023-02-27T11:24:53.470Z,3.96
2023-02-27T11:27:22.762Z,3.85
2023-02-27T11:29:58.165Z,3.75
2023-02-27T11:32:30.406Z,3.93
2023-02-27T11:34:58.040Z,3.94
2023-02-27T11:37:35.466Z,3.92
2023-02-27T11:40:06.899Z,4.04
2023-02-27T11:42:51.360Z,4.10
2023-02-27T11:46:04.905Z,4.09
2023-02-27T11:48:12.559Z,4.21
2023-02-27T11:50:52.033Z,4.46
2023-02-27T11:53:55.342Z,4.41
2023-02-27T11:56:44.209Z,4.54
2023-02-27T11:59:11.634Z,4.50
2023-02-27T12:01:45.683Z,4.32
2023-02-27T12:05:10.609Z,4.39
2023-02-27T12:07:54.391Z,4.51
2023-02-27T12:10:24.903Z,4.56
2023-02-27T12:12:57.146Z,4.57
2023-02-27T12:15:27.629Z,4.44
2023-02-27T12:18:09.334Z,4.49
2023-02-27T12:20:45.852Z,4.45
2023-02-27T12:23:29.538Z,4.58
2023-02-27T12:26:06.177Z,4.74
2023-02-27T12:28:53.305Z,4.65
2023-02-27T12:31:32.724Z,4.75
2023-02-27T12:34:19.075Z,4.71
2023-02-27T12:36:48.161Z,4.73
2023-02-27T12:39:23.789Z,4.94
2023-02-27T12:42:10.349Z,5.21
2023-02-27T12:44:54.803Z,5.06
2023-02-27T12:47:44.339Z,4.98
2023-02-27T12:50:13.174Z,5.13
2023-02-27T12:53:21.951Z,5.15
2023-02-27T12:55:58.599Z,5.23
2023-02-27T12:58:46.432Z,6.82
2023-02-27T13:01:29.190Z,5.62
2023-02-27T13:04:00.913Z,5.58
2023-02-27T13:07:11.089Z,5.47
2023-02-27T13:09:48.014Z,5.59
2023-02-27T13:12:32.187Z,5.37
2023-02-27T13:15:18.635Z,5.29
2023-02-27T13:17:49.568Z,5.47
2023-02-27T13:20:22.837Z,5.65
2023-02-27T13:23:19.517Z,5.60
2023-02-27T13:25:51.012Z,5.70
2023-02-27T13:28:27.786Z,5.62
2023-02-27T13:31:01.073Z,5.57
2023-02-27T13:33:43.580Z,5.56
2023-02-27T13:36:46.626Z,5.61
2023-02-27T13:39:37.088Z,5.93
2023-02-27T13:42:05.104Z,6.10
2023-02-27T13:44:40.815Z,6.10
2023-02-27T13:47:30.058Z,6.11
2023-02-27T13:50:02.597Z,5.93
2023-02-27T13:52:37.945Z,5.86
2023-02-27T13:55:35.342Z,5.90
2023-02-27T13:58:04.151Z,6.04
2023-02-27T14:00:33.778Z,6.05
2023-02-27T14:03:17.519Z,6.07
2023-02-27T14:05:46.938Z,6.20
2023-02-27T14:08:22.776Z,6.23
2023-02-27T14:11:20.577Z,6.20
2023-02-27T14:13:51.244Z,6.30
2023-02-27T14:16:39.985Z,6.26
2023-02-27T14:19:17.212Z,6.36
2023-02-27T14:22:04.182Z,6.23
2023-02-27T14:24:38.124Z,6.36
2023-02-27T14:27:15.700Z,6.33
2023-02-27T14:29:46.695Z,6.45
2023-02-27T14:32:32.972Z,6.43
2023-02-27T14:35:02.304Z,6.55
2023-02-27T14:37:30.687Z,7.29
2023-02-27T14:39:59.977Z,6.98
2023-02-27T14:42:34.344Z,6.82
2023-02-27T14:45:03.249Z,7.06
2023-02-27T14:47:36.038Z,6.88
2023-02-27T14:50:06.030Z,6.66
2023-02-27T14:52:41.773Z,6.55
2023-02-27T14:55:29.895Z,6.64
2023-02-27T14:58:17.412Z,6.59
2023-02-27T15:00:50.720Z,6.67
2023-02-27T15:03:27.168Z,6.80
2023-02-27T15:05:59.008Z,6.95
2023-02-27T15:08:30.183Z,6.91
2023-02-27T15:10:59.222Z,6.78
2023-02-27T15:13:32.832Z,6.87
2023-02-27T15:16:18.966Z,6.78
2023-02-27T15:18:51.045Z,6.88
2023-02-27T15:21:24.507Z,6.82
2023-02-27T15:23:59.580Z,6.89
2023-02-27T15:26:30.168Z,6.89
2023-02-27T15:28:59.904Z,7.01
2023-02-27T15:31:30.182Z,6.96
2023-02-27T15:33:59.960Z,6.88
2023-02-27T15:36:33.157Z,6.79
2023-02-27T15:39:07.658Z,6.83
2023-02-27T15:41:35.795Z,6.80
2023-02-27T15:44:03.748Z,6.64
2023-02-27T15:46:31.627Z,6.72
2023-02-27T15:48:59.324Z,6.65
2023-02-27T15:51:28.123Z,6.63
2023-02-27T15:53:59.158Z,6.66
2023-02-27T15:56:30.447Z,6.63
2023-02-27T15:59:00.876Z,6.81
2023-02-27T16:01:32.439Z,6.73
2023-02-27T16:04:05.596Z,6.69
2023-02-27T16:06:39.465Z,6.78
2023-02-27T16:09:19.902Z,6.68
2023-02-27T16:11:47.505Z,6.58
2023-02-27T16:14:37.840Z,6.58
2023-02-27T16:17:22.682Z,6.53
2023-02-27T16:19:50.017Z,6.37
2023-02-27T16:22:19.612Z,6.35
2023-02-27T16:24:49.584Z,6.37
2023-02-27T16:27:24.008Z,6.39
2023-02-27T16:29:53.351Z,6.30
2023-02-27T16:32:23.715Z,6.30
2023-02-27T16:34:51.981Z,6.28
2023-02-27T16:37:27.160Z,6.36
2023-02-27T16:39:54.522Z,6.37
2023-02-27T16:42:22.731Z,6.22
2023-02-27T16:44:50.332Z,6.11
2023-02-27T16:47:17.717Z,6.15
2023-02-27T16:49:46.431Z,6.06
2023-02-27T16:52:14.088Z,6.08
2023-02-27T16:54:41.678Z,6.11
2023-02-27T16:57:09.877Z,6.14
2023-02-27T16:59:40.373Z,6.19
2023-02-27T17:02:13.312Z,5.90
2023-02-27T17:04:44.358Z,6.01
2023-02-27T17:07:17.051Z,6.01
2023-02-27T17:09:47.890Z,6.01
2023-02-27T17:12:15.522Z,5.94
2023-02-27T17:14:43.239Z,5.91
2023-02-27T17:17:11.484Z,5.82
2023-02-27T17:19:39.144Z,5.92
2023-02-27T17:22:06.646Z,5.75
2023-02-27T17:24:34.338Z,5.78
2023-02-27T17:27:01.689Z,5.76
2023-02-27T17:29:29.147Z,5.78
2023-02-27T17:31:57.691Z,5.77
2023-02-27T17:34:25.331Z,5.75
2023-02-27T17:36:53.364Z,5.73
2023-02-27T17:39:20.760Z,5.70
2023-02-27T17:41:48.301Z,5.60
2023-02-27T17:44:15.801Z,5.60
2023-02-27T17:46:43.309Z,5.65
2023-02-27T17:49:10.639Z,5.51
2023-02-27T17:51:38.143Z,5.59
2023-02-27T17:54:06.354Z,5.53
2023-02-27T17:56:36.768Z,5.51
2023-02-27T17:59:05.098Z,5.59
2023-02-27T18:01:32.615Z,5.61
2023-02-27T18:04:00.095Z,5.36
2023-02-27T18:06:28.730Z,5.33
2023-02-27T18:08:56.239Z,5.36
2023-02-27T18:11:23.738Z,5.24
2023-02-27T18:13:51.525Z,5.33
2023-02-27T18:16:21.922Z,5.37
2023-02-27T18:18:49.826Z,5.21
2023-02-27T18:21:23.191Z,5.11
2023-02-27T18:23:51.850Z,5.14
2023-02-27T18:26:30.335Z,5.24
2023-02-27T18:29:01.127Z,5.22
2023-02-27T18:31:29.861Z,5.19
2023-02-27T18:33:57.295Z,5.11
2023-02-27T18:36:25.051Z,5.03
2023-02-27T18:38:52.549Z,5.01
2023-02-27T18:41:19.932Z,4.99
2023-02-27T18:43:47.577Z,5.00
2023-02-27T18:46:15.194Z,4.97
2023-02-27T18:48:45.937Z,4.98
2023-02-27T18:51:14.946Z,4.94
2023-02-27T18:53:44.592Z,4.88
2023-02-27T18:56:12.633Z,5.04
2023-02-27T18:58:40.441Z,4.90
2023-02-27T19:01:08.514Z,4.99
2023-02-27T19:03:36.002Z,5.04
2023-02-27T19:06:03.780Z,4.75
2023-02-27T19:08:31.608Z,4.56
2023-02-27T19:10:59.312Z,4.70
2023-02-27T19:13:26.892Z,4.57
2023-02-27T19:15:54.531Z,4.55
2023-02-27T19:18:22.113Z,4.54
2023-02-27T19:20:49.693Z,4.54
2023-02-27T19:23:17.109Z,4.38
2023-02-27T19:25:45.961Z,4.43
2023-02-27T19:28:13.352Z,4.42
2023-02-27T19:30:41.167Z,4.47
2023-02-27T19:33:08.639Z,4.49
2023-02-27T19:35:38.526Z,4.37
2023-02-27T19:38:06.002Z,4.46
2023-02-27T19:40:33.526Z,4.36
2023-02-27T19:43:00.831Z,4.28
2023-02-27T19:45:28.952Z,4.28
2023-02-27T19:47:56.454Z,4.28
2023-02-27T19:50:24.125Z,4.24
2023-02-27T19:52:52.326Z,4.23
2023-02-27T19:55:19.634Z,4.29
2023-02-27T19:57:47.454Z,4.30
2023-02-27T20:00:15.718Z,4.16
2023-02-27T20:02:43.748Z,4.32
2023-02-27T20:05:12.174Z,4.23
2023-02-27T20:07:40.389Z,4.13
2023-02-27T20:10:08.053Z,4.08
2023-02-27T20:12:35.652Z,4.17
2023-02-27T20:15:08.864Z,4.11
2023-02-27T20:17:36.794Z,3.95
2023-02-27T20:20:05.654Z,4.02
2023-02-27T20:22:33.322Z,4.07
2023-02-27T20:25:00.840Z,4.10
2023-02-27T20:27:28.478Z,4.20
2023-02-27T20:29:56.445Z,3.96
2023-02-27T20:32:24.703Z,3.93
2023-02-27T20:34:54.788Z,3.86
2023-02-27T20:37:23.395Z,3.88
2023-02-27T20:39:50.720Z,3.88
2023-02-27T20:42:18.017Z,4.07
2023-02-27T20:44:47.798Z,4.03
2023-02-27T20:47:15.192Z,4.06
2023-02-27T20:49:42.453Z,3.99
2023-02-27T20:52:09.680Z,3.91
2023-02-27T20:54:37.800Z,3.91
2023-02-27T20:57:05.449Z,3.94
2023-02-27T20:59:32.974Z,3.98
2023-02-27T21:02:00.212Z,4.10
2023-02-27T21:04:43.125Z,3.68
2023-02-27T21:07:16.072Z,3.76
2023-02-27T21:09:43.580Z,3.83
2023-02-27T21:12:11.664Z,3.91
2023-02-27T21:14:39.173Z,4.00
2023-02-27T21:17:07.139Z,3.79
2023-02-27T21:19:34.520Z,3.80
2023-02-27T21:22:01.999Z,3.83
2023-02-27T21:24:32.478Z,3.90
2023-02-27T21:27:00.127Z,3.89
2023-02-27T21:29:27.444Z,4.01
2023-02-27T21:31:55.254Z,4.04
2023-02-27T21:34:25.887Z,3.82
2023-02-27T21:36:54.452Z,3.80
2023-02-27T21:39:24.771Z,3.65
2023-02-27T21:41:52.386Z,3.67
2023-02-27T21:44:21.707Z,3.67
2023-02-27T21:46:49.194Z,3.65
2023-02-27T21:49:24.736Z,3.43
2023-02-27T21:51:52.193Z,3.55
2023-02-27T21:54:22.235Z,3.51
2023-02-27T21:56:50.437Z,3.42
2023-02-27T21:59:18.906Z,3.66
2023-02-27T22:01:47.738Z,3.65
2023-02-27T22:04:20.001Z,3.54
2023-02-27T22:06:48.979Z,3.61
2023-02-27T22:09:16.381Z,3.62
2023-02-27T22:11:44.211Z,3.59
2023-02-27T22:14:12.215Z,3.62
2023-02-27T22:16:39.719Z,3.40
2023-02-27T22:19:13.085Z,3.42
2023-02-27T22:21:40.810Z,3.30
2023-02-27T22:24:09.242Z,3.38
2023-02-27T22:26:36.604Z,3.44
2023-02-27T22:29:05.821Z,3.40
2023-02-27T22:31:35.660Z,3.29
2023-02-27T22:34:06.295Z,3.34
2023-02-27T22:36:35.101Z,3.28
2023-02-27T22:39:03.570Z,3.28
2023-02-27T22:41:33.393Z,3.35
2023-02-27T22:44:01.352Z,3.27
2023-02-27T22:46:34.317Z,3.08
2023-02-27T22:49:07.534Z,3.27
2023-02-27T22:51:35.278Z,3.25
2023-02-27T22:54:04.888Z,3.15
2023-02-27T22:56:33.804Z,2.97
2023-02-27T22:59:01.291Z,3.00
2023-02-27T23:01:31.605Z,3.07
2023-02-27T23:04:01.661Z,2.91
2023-02-27T23:06:31.014Z,2.91
2023-02-27T23:08:59.026Z,2.77
2023-02-27T23:11:26.895Z,2.68
2023-02-27T23:13:54.414Z,2.85
2023-02-27T23:16:22.071Z,2.98
2023-02-27T23:18:51.589Z,2.85
2023-02-27T23:21:22.047Z,2.84
2023-02-27T23:23:49.755Z,2.77
2023-02-27T23:26:17.110Z,2.71
2023-02-27T23:28:44.488Z,2.93
2023-02-27T23:31:12.164Z,2.91
2023-02-27T23:33:40.260Z,2.71
2023-02-27T23:36:07.663Z,2.59
2023-02-27T23:38:35.056Z,2.77
2023-02-27T23:41:09.489Z,2.98
2023-02-27T23:43:36.902Z,2.74
2023-02-27T23:46:12.622Z,2.54
2023-02-27T23:48:40.494Z,2.61
2023-02-27T23:51:09.225Z,2.57
2023-02-27T23:53:40.361Z,2.78
2023-02-27T23:56:22.905Z,2.70
2023-02-27T23:58:59.153Z,2.72
